This is the latest recevied weather packets stored in our database for station/object Dunnningn. If no packets are shown the sender has not sent any weather packets the latest 10 day(s).
| Time | Temp. | Humidity | Pressure | Rain* | Wind** | Luminosity | Snow |
|---|---|---|---|---|---|---|---|
| 1777599131 | 3.89° C | 54% | 1025.5 hPa | 0 mm | - | - | - |
| 1777597331 | 4.44° C | 52% | 1025.6 hPa | 0 mm | - | - | - |
| 1777595529 | 6.11° C | 48% | 1025.5 hPa | 0 mm | - | - | - |
| 1777593730 | 7.78° C | 40% | 1025.5 hPa | 0 mm | - | - | - |
| 1777591929 | 7.22° C | 38% | 1025.5 hPa | 0 mm | - | - | - |
| 1777590129 | 6.67° C | 47% | 1025.5 hPa | 0 mm | - | - | - |
| 1777588329 | 7.78° C | 41% | 1025.6 hPa | 0 mm | - | - | - |
| 1777584729 | 7.22° C | 45% | 1025.6 hPa | 0 mm | - | - | - |
| 1777582929 | 8.33° C | 44% | 1025.6 hPa | 0 mm | - | - | - |
| 1777581135 | 9.44° C | 38% | 1025.5 hPa | 0 mm | - | - | - |
| 1777579329 | 10.56° C | 33% | 1025.3 hPa | 0 mm | - | - | - |
| 1777577529 | 11.67° C | 30% | 1025 hPa | 0 mm | - | - | - |
| 1777575735 | 11.67° C | 29% | 1024.7 hPa | 0 mm | - | - | - |
| 1777573930 | 12.78° C | 28% | 1024.1 hPa | 0 mm | - | - | - |
| 1777572132 | 13.89° C | 30% | 1023.9 hPa | 0 mm | - | - | - |
| 1777570330 | 14.44° C | 26% | 1023.7 hPa | 0 mm | - | - | - |
| 1777568531 | 15.56° C | 25% | 1023.7 hPa | 0 mm | - | - | - |
| 1777566730 | 17.22° C | 24% | 1023.5 hPa | 0 mm | - | - | - |
| 1777564930 | 17.78° C | 24% | 1023.3 hPa | 0 mm | - | - | - |
| 1777563132 | 17.78° C | 24% | 1023.2 hPa | 0 mm | - | - | - |
| 1777559530 | 17.78° C | 24% | 1023.5 hPa | 0 mm | - | - | - |
| 1777557730 | 17.78° C | 25% | 1023.5 hPa | 0 mm | - | - | - |
| 1777555931 | 17.78° C | 28% | 1023.2 hPa | 0 mm | - | - | - |
| 1777554130 | 17.78° C | 29% | 1023.3 hPa | 0 mm | - | - | - |
| 1777552332 | 17.22° C | 28% | 1023.4 hPa | 0 mm | - | - | - |
* Rain since midnight (hover to see other rain measurements)
** Current wind speed in m/s (hover to see current wind gust speed)